GRZ513 Details

Departure: Juneau International Airport (PAJN)
Arrival: Sitka Rocky Gutierrez Airport (PASI) at N/A
Route: RODMN1 RODMN
Notes:


Current Weather Information
PAJN 231253Z 12010KT 9SM -RA SCT032 OVC043 06/04 A3019 RMK AO2 RAB12 SLP222 P0001 T00560044
PASI 231353Z 11016G26KT 10SM OVC041 10/04 A3003 RMK AO2 PK WND 10028/1338 RAE07B31E52 SLP170 P0000 T01000039